createdAt,value
2019-03-11T00:02:11.923Z,9.08
2019-03-11T00:04:40.214Z,15.90
2019-03-11T00:07:08.690Z,18.30
2019-03-11T00:09:36.922Z,15.80
2019-03-11T00:12:05.177Z,14.70
2019-03-11T00:14:33.412Z,19.42
2019-03-11T00:17:01.717Z,17.27
2019-03-11T00:19:29.959Z,16.60
2019-03-11T00:21:58.191Z,13.85
2019-03-11T00:24:26.423Z,6.22
2019-03-11T00:26:54.742Z,7.62
2019-03-11T00:29:22.964Z,9.80
2019-03-11T00:31:51.180Z,12.05
2019-03-11T00:34:19.415Z,12.98
2019-03-11T00:36:47.642Z,6.35
2019-03-11T00:39:15.860Z,10.88
2019-03-11T00:41:44.321Z,5.67
2019-03-11T00:44:12.568Z,7.28
2019-03-11T00:46:40.792Z,10.10
2019-03-11T00:49:09.011Z,6.67
2019-03-11T00:51:37.241Z,6.95
2019-03-11T00:54:05.471Z,6.78
2019-03-11T00:56:33.669Z,11.53
2019-03-11T00:59:01.905Z,7.80
2019-03-11T01:01:30.117Z,6.03
2019-03-11T01:03:58.577Z,5.53
2019-03-11T01:06:26.796Z,7.80
2019-03-11T01:08:55.282Z,11.88
2019-03-11T01:11:23.543Z,6.92
2019-03-11T01:13:51.802Z,4.75
2019-03-11T01:16:20.023Z,5.87
2019-03-11T01:18:48.293Z,6.17
2019-03-11T01:21:16.738Z,6.30
2019-03-11T01:23:45.215Z,3.65
2019-03-11T01:26:13.710Z,6.42
2019-03-11T01:28:41.934Z,5.28
2019-03-11T01:31:10.151Z,7.58
2019-03-11T01:33:38.371Z,4.97
2019-03-11T01:36:06.609Z,7.55
2019-03-11T01:38:34.843Z,8.40
2019-03-11T01:41:03.079Z,5.25
2019-03-11T01:43:31.292Z,5.12
2019-03-11T01:45:59.521Z,8.10
2019-03-11T01:48:29.365Z,6.22
2019-03-11T01:50:57.588Z,4.78
2019-03-11T01:53:26.055Z,5.87
2019-03-11T01:55:54.299Z,5.62
2019-03-11T01:58:22.495Z,5.22
2019-03-11T02:00:50.739Z,6.05
2019-03-11T02:03:19.204Z,6.92
2019-03-11T02:05:47.654Z,6.55
2019-03-11T02:08:15.888Z,7.20
2019-03-11T02:10:44.093Z,9.13
2019-03-11T02:13:12.564Z,5.50
2019-03-11T02:15:41.036Z,6.12
2019-03-11T02:18:09.271Z,5.45
2019-03-11T02:20:37.483Z,5.50
2019-03-11T02:23:05.715Z,10.05
2019-03-11T02:25:33.954Z,8.23
2019-03-11T02:28:02.171Z,9.10
2019-03-11T02:30:30.389Z,4.92
2019-03-11T02:32:58.610Z,7.55
2019-03-11T02:35:28.275Z,8.90
2019-03-11T02:37:56.842Z,6.65
2019-03-11T02:40:25.714Z,8.38
2019-03-11T02:42:54.097Z,4.78
2019-03-11T02:45:22.328Z,5.42
2019-03-11T02:47:50.550Z,5.28
2019-03-11T02:50:18.777Z,10.32
2019-03-11T02:52:47.083Z,5.12
2019-03-11T02:55:15.305Z,8.40
2019-03-11T02:57:43.524Z,12.82
2019-03-11T03:00:14.850Z,5.70
2019-03-11T03:03:00.676Z,8.10
2019-03-11T03:05:33.724Z,12.95
2019-03-11T03:08:01.962Z,10.32
2019-03-11T03:10:30.174Z,8.98
2019-03-11T03:12:58.418Z,9.08
2019-03-11T03:15:26.615Z,6.33
2019-03-11T03:17:54.877Z,9.95
2019-03-11T03:20:23.106Z,11.97
2019-03-11T03:22:51.330Z,10.48
2019-03-11T03:25:33.223Z,6.17
2019-03-11T03:27:49.928Z,13.20
2019-03-11T03:30:19.126Z,7.22
2019-03-11T03:32:47.341Z,9.18
2019-03-11T03:35:15.592Z,9.65
2019-03-11T03:37:43.825Z,8.93
2019-03-11T03:40:13.586Z,9.48
2019-03-11T03:42:41.902Z,9.70
2019-03-11T03:45:30.650Z,9.05
2019-03-11T03:47:59.318Z,7.03
2019-03-11T03:50:33.413Z,7.97
2019-03-11T03:53:01.879Z,7.33
2019-03-11T03:55:30.096Z,7.78
2019-03-11T03:57:58.317Z,9.83
2019-03-11T04:00:26.556Z,6.15
2019-03-11T04:02:54.820Z,8.60
2019-03-11T04:05:23.144Z,5.78
2019-03-11T04:07:51.351Z,9.60
2019-03-11T04:10:20.123Z,6.28
2019-03-11T04:12:48.343Z,8.33
2019-03-11T04:15:16.593Z,6.60
2019-03-11T04:17:44.970Z,7.45
2019-03-11T04:20:22.256Z,9.88
2019-03-11T04:22:50.505Z,8.25
2019-03-11T04:25:18.799Z,5.55
2019-03-11T04:27:48.657Z,11.38
2019-03-11T04:30:20.163Z,3.80
2019-03-11T04:32:48.383Z,11.57
2019-03-11T04:35:16.620Z,12.03
2019-03-11T04:37:45.099Z,12.80
2019-03-11T04:40:14.482Z,9.38
2019-03-11T04:42:42.708Z,9.18
2019-03-11T04:45:15.912Z,11.68
2019-03-11T04:47:44.254Z,10.55
2019-03-11T04:50:14.792Z,9.45
2019-03-11T04:52:42.994Z,8.60
2019-03-11T04:55:12.473Z,6.10
2019-03-11T04:57:45.369Z,6.15
2019-03-11T05:00:16.458Z,7.65
2019-03-11T05:02:44.687Z,7.45
2019-03-11T05:05:12.927Z,5.97
2019-03-11T05:07:41.142Z,3.27
2019-03-11T05:10:11.010Z,10.28
2019-03-11T05:12:39.229Z,3.35
2019-03-11T05:15:09.304Z,5.58
2019-03-11T05:17:37.529Z,3.65
2019-03-11T05:20:08.643Z,5.10
2019-03-11T05:22:36.850Z,5.20
2019-03-11T05:25:06.613Z,8.00
2019-03-11T05:27:34.905Z,9.25
2019-03-11T05:30:04.367Z,8.98
2019-03-11T05:32:32.658Z,4.17
2019-03-11T05:35:00.911Z,4.53
2019-03-11T05:37:29.142Z,5.87
2019-03-11T05:39:57.342Z,7.12
2019-03-11T05:42:25.830Z,12.60
2019-03-11T05:44:54.049Z,4.40
2019-03-11T05:47:22.291Z,6.45
2019-03-11T05:49:50.494Z,6.97
2019-03-11T05:52:18.775Z,7.65
2019-03-11T05:54:47.012Z,5.17
2019-03-11T05:57:15.241Z,6.42
2019-03-11T05:59:43.549Z,5.03
2019-03-11T06:02:11.788Z,9.18
2019-03-11T06:04:40.028Z,7.22
2019-03-11T06:07:08.262Z,4.30
2019-03-11T06:09:36.487Z,9.08
2019-03-11T06:12:04.713Z,7.20
2019-03-11T06:14:33.209Z,8.40
2019-03-11T06:17:01.439Z,9.33
2019-03-11T06:19:29.980Z,8.45
2019-03-11T06:22:02.558Z,5.83
2019-03-11T06:24:30.767Z,7.00
2019-03-11T06:26:59.013Z,8.20
2019-03-11T06:29:30.773Z,6.55
2019-03-11T06:31:57.266Z,7.60
2019-03-11T06:34:25.475Z,7.65
2019-03-11T06:36:53.949Z,14.20
2019-03-11T06:39:22.169Z,7.22
2019-03-11T06:41:50.382Z,9.33
2019-03-11T06:44:18.861Z,13.58
2019-03-11T06:46:47.117Z,9.83
2019-03-11T06:49:15.447Z,12.88
2019-03-11T06:51:43.647Z,9.18
2019-03-11T06:54:11.882Z,10.40
2019-03-11T06:56:40.203Z,15.28
2019-03-11T06:59:12.504Z,11.85
2019-03-11T07:01:41.227Z,9.63
2019-03-11T07:04:09.563Z,10.40
2019-03-11T07:06:37.815Z,9.60
2019-03-11T07:09:07.616Z,10.88
2019-03-11T07:11:36.144Z,7.53
2019-03-11T07:14:04.482Z,8.20
2019-03-11T07:16:32.952Z,11.03
2019-03-11T07:19:01.205Z,13.38
2019-03-11T07:21:29.438Z,9.88
2019-03-11T07:23:57.673Z,11.10
2019-03-11T07:26:25.914Z,7.47
2019-03-11T07:28:54.129Z,10.68
2019-03-11T07:31:22.395Z,12.53
2019-03-11T07:33:50.634Z,9.08
2019-03-11T07:36:18.850Z,5.92
2019-03-11T07:38:47.073Z,7.20
2019-03-11T07:41:15.302Z,7.40
2019-03-11T07:43:43.538Z,7.28
2019-03-11T07:46:11.750Z,5.35
2019-03-11T07:48:39.972Z,6.65
2019-03-11T07:51:08.203Z,6.90
2019-03-11T07:53:36.451Z,8.45
2019-03-11T07:56:04.662Z,5.83
2019-03-11T07:58:32.886Z,7.55
2019-03-11T08:01:01.163Z,4.75
2019-03-11T08:03:29.377Z,6.37
2019-03-11T08:05:57.615Z,5.85
2019-03-11T08:08:25.831Z,6.12
2019-03-11T08:10:54.059Z,4.60
2019-03-11T08:13:22.375Z,6.60
2019-03-11T08:15:50.631Z,7.40
2019-03-11T08:18:18.843Z,7.80
2019-03-11T08:20:47.071Z,6.45
2019-03-11T08:23:15.522Z,6.00
2019-03-11T08:25:43.813Z,9.03
2019-03-11T08:28:12.063Z,5.87
2019-03-11T08:30:40.285Z,8.75
2019-03-11T08:33:08.493Z,5.22
2019-03-11T08:35:36.828Z,5.58
2019-03-11T08:38:05.531Z,8.53
2019-03-11T08:40:33.886Z,8.60
2019-03-11T08:43:02.346Z,5.05
2019-03-11T08:45:30.608Z,7.80
2019-03-11T08:47:58.801Z,5.28
2019-03-11T08:50:27.066Z,6.55
2019-03-11T08:52:55.285Z,9.10
2019-03-11T08:55:23.506Z,6.30
2019-03-11T08:57:51.734Z,4.75
2019-03-11T09:00:24.234Z,7.37
2019-03-11T09:02:52.475Z,11.63
2019-03-11T09:05:20.695Z,11.83
2019-03-11T09:07:48.934Z,10.63
2019-03-11T09:10:17.902Z,11.15
2019-03-11T09:12:46.189Z,10.60
2019-03-11T09:15:15.340Z,15.75
2019-03-11T09:17:43.567Z,15.70
2019-03-11T09:20:15.439Z,15.40
2019-03-11T09:22:43.661Z,10.85
2019-03-11T09:25:17.015Z,14.53
2019-03-11T09:27:45.382Z,11.43
2019-03-11T09:30:16.293Z,11.75
2019-03-11T09:32:44.541Z,10.20
2019-03-11T09:35:12.751Z,8.80
2019-03-11T09:37:40.978Z,9.78
2019-03-11T09:40:11.990Z,13.53
2019-03-11T09:42:40.212Z,12.45
2019-03-11T09:45:11.527Z,15.95
2019-03-11T09:47:39.770Z,16.05
2019-03-11T09:50:10.212Z,13.72
2019-03-11T09:52:38.498Z,12.20
2019-03-11T09:55:12.318Z,11.20
2019-03-11T09:57:40.788Z,11.33
2019-03-11T10:00:26.771Z,11.57
2019-03-11T10:02:54.987Z,13.78
2019-03-11T10:05:23.232Z,11.08
2019-03-11T10:07:51.542Z,17.23
2019-03-11T10:10:24.760Z,14.43
2019-03-11T10:12:53.088Z,11.95
2019-03-11T10:15:22.066Z,12.03
2019-03-11T10:17:50.303Z,14.78
2019-03-11T10:20:19.261Z,14.33
2019-03-11T10:22:47.503Z,11.03
2019-03-11T10:25:19.541Z,16.73
2019-03-11T10:27:47.800Z,15.90
2019-03-11T10:30:17.447Z,13.45
2019-03-11T10:32:46.027Z,10.88
2019-03-11T10:35:36.879Z,13.98
2019-03-11T10:37:51.632Z,9.75
2019-03-11T10:40:21.502Z,9.73
2019-03-11T10:42:49.732Z,14.73
2019-03-11T10:45:26.542Z,13.43
2019-03-11T10:47:47.898Z,16.10
2019-03-11T10:50:17.352Z,13.45
2019-03-11T10:52:45.577Z,12.50
2019-03-11T10:55:15.251Z,10.15
2019-03-11T10:57:43.588Z,8.15
2019-03-11T11:00:14.897Z,11.93
2019-03-11T11:02:43.114Z,8.98
2019-03-11T11:05:11.330Z,13.75
2019-03-11T11:07:39.555Z,10.45
2019-03-11T11:10:10.786Z,14.13
2019-03-11T11:12:39.002Z,12.07
2019-03-11T11:15:10.487Z,10.53
2019-03-11T11:17:38.698Z,16.02
2019-03-11T11:20:09.737Z,14.93
2019-03-11T11:22:37.953Z,17.77
2019-03-11T11:25:08.824Z,12.80
2019-03-11T11:27:37.035Z,19.40
2019-03-11T11:30:08.528Z,13.72
2019-03-11T11:32:36.749Z,14.98
2019-03-11T11:35:05.714Z,15.03
2019-03-11T11:37:33.936Z,19.12
2019-03-11T11:40:02.171Z,17.55
2019-03-11T11:42:30.455Z,13.15
2019-03-11T11:44:58.932Z,12.35
2019-03-11T11:47:27.140Z,14.93
2019-03-11T11:49:55.385Z,11.48
2019-03-11T11:52:23.602Z,11.85
2019-03-11T11:54:51.833Z,8.60
2019-03-11T11:57:20.054Z,8.55
2019-03-11T11:59:53.986Z,9.58
2019-03-11T12:02:18.458Z,11.43
2019-03-11T12:04:46.810Z,7.60
2019-03-11T12:07:15.098Z,9.25
2019-03-11T12:09:43.389Z,10.43
2019-03-11T12:12:11.590Z,8.85
2019-03-11T12:14:39.818Z,9.98
2019-03-11T12:17:08.030Z,7.97
2019-03-11T12:19:36.263Z,8.23
2019-03-11T12:22:04.473Z,10.95
2019-03-11T12:24:32.687Z,9.58
2019-03-11T12:27:00.911Z,6.83
2019-03-11T12:29:29.138Z,6.85
2019-03-11T12:31:57.398Z,9.80
2019-03-11T12:34:25.745Z,9.85
2019-03-11T12:36:53.989Z,5.80
2019-03-11T12:39:22.447Z,8.00
2019-03-11T12:41:50.683Z,3.62
2019-03-11T12:44:18.899Z,7.00
2019-03-11T12:46:47.152Z,5.97
2019-03-11T12:49:15.393Z,6.33
2019-03-11T12:51:49.589Z,8.48
2019-03-11T12:54:13.548Z,12.82
2019-03-11T12:56:41.771Z,10.60
2019-03-11T12:59:09.998Z,7.95
2019-03-11T13:01:38.252Z,8.15
2019-03-11T13:04:06.469Z,8.03
2019-03-11T13:06:34.727Z,12.25
2019-03-11T13:09:03.014Z,6.17
2019-03-11T13:11:31.239Z,6.47
2019-03-11T13:13:59.445Z,4.15
2019-03-11T13:16:28.687Z,6.65
2019-03-11T13:18:57.042Z,8.50
2019-03-11T13:21:26.440Z,8.85
2019-03-11T13:23:54.730Z,6.28
2019-03-11T13:26:22.950Z,5.90
2019-03-11T13:28:51.190Z,7.03
2019-03-11T13:31:19.401Z,5.28
2019-03-11T13:33:47.642Z,6.80
2019-03-11T13:36:15.913Z,10.23
2019-03-11T13:38:44.129Z,9.25
2019-03-11T13:41:12.522Z,8.18
2019-03-11T13:43:40.985Z,6.28
2019-03-11T13:46:09.215Z,7.45
2019-03-11T13:48:37.453Z,7.00
2019-03-11T13:51:05.770Z,10.20
2019-03-11T13:53:34.078Z,6.72
2019-03-11T13:56:02.392Z,9.90
2019-03-11T13:58:33.051Z,5.92
2019-03-11T14:01:00.764Z,7.83
2019-03-11T14:03:29.267Z,6.75
2019-03-11T14:06:00.250Z,9.80
2019-03-11T14:08:28.542Z,6.70
2019-03-11T14:10:56.783Z,10.98
2019-03-11T14:13:25.009Z,6.33
2019-03-11T14:15:53.214Z,7.58
2019-03-11T14:18:21.478Z,4.47
2019-03-11T14:20:49.694Z,3.87
2019-03-11T14:23:17.962Z,7.20
2019-03-11T14:25:46.206Z,8.88
2019-03-11T14:28:14.462Z,8.38
2019-03-11T14:30:42.750Z,4.80
2019-03-11T14:33:10.992Z,5.17
2019-03-11T14:35:39.294Z,10.18
2019-03-11T14:38:07.531Z,7.67
2019-03-11T14:40:35.779Z,8.20
2019-03-11T14:43:04.008Z,7.65
2019-03-11T14:45:32.242Z,4.78
2019-03-11T14:48:00.465Z,8.70
2019-03-11T14:50:28.678Z,10.00
2019-03-11T14:52:56.939Z,8.00
2019-03-11T14:55:25.214Z,8.40
2019-03-11T14:57:53.405Z,11.57
2019-03-11T15:00:22.171Z,9.30
2019-03-11T15:02:50.409Z,8.03
2019-03-11T15:05:19.193Z,11.93
2019-03-11T15:07:47.492Z,6.20
2019-03-11T15:10:17.310Z,6.87
2019-03-11T15:12:45.620Z,5.42
2019-03-11T15:15:18.669Z,5.30
2019-03-11T15:17:46.918Z,8.93
2019-03-11T15:20:15.315Z,12.28
2019-03-11T15:22:43.616Z,11.20
2019-03-11T15:25:12.912Z,8.18
2019-03-11T15:27:41.341Z,11.88
2019-03-11T15:30:22.356Z,11.83
2019-03-11T15:32:50.574Z,11.28
2019-03-11T15:35:18.799Z,7.42
2019-03-11T15:37:47.038Z,5.80
2019-03-11T15:40:16.205Z,10.08
2019-03-11T15:42:44.481Z,10.58
2019-03-11T15:45:18.031Z,7.85
2019-03-11T15:47:46.316Z,6.97
2019-03-11T15:50:17.852Z,9.45
2019-03-11T15:52:46.065Z,8.53
2019-03-11T15:55:15.836Z,7.62
2019-03-11T15:57:44.058Z,6.30
2019-03-11T16:00:14.882Z,7.17
2019-03-11T16:02:43.124Z,7.10
2019-03-11T16:05:11.371Z,7.67
2019-03-11T16:07:39.660Z,5.08
2019-03-11T16:10:16.831Z,9.23
2019-03-11T16:12:40.862Z,7.42
2019-03-11T16:15:10.518Z,6.00
2019-03-11T16:17:38.792Z,7.37
2019-03-11T16:20:09.913Z,4.33
2019-03-11T16:22:38.142Z,8.73
2019-03-11T16:25:08.681Z,11.20
2019-03-11T16:27:36.915Z,6.28
2019-03-11T16:30:14.730Z,9.68
2019-03-11T16:32:57.792Z,6.25
2019-03-11T16:35:13.035Z,7.70
2019-03-11T16:37:41.271Z,11.25
2019-03-11T16:40:11.807Z,8.55
2019-03-11T16:42:40.071Z,7.65
2019-03-11T16:45:13.015Z,8.85
2019-03-11T16:47:41.241Z,9.28
2019-03-11T16:50:20.274Z,7.58
2019-03-11T16:52:48.554Z,6.03
2019-03-11T16:55:21.705Z,5.55
2019-03-11T16:57:53.312Z,7.53
2019-03-11T17:00:22.795Z,6.03
2019-03-11T17:02:51.030Z,7.37
2019-03-11T17:05:19.384Z,11.22
2019-03-11T17:07:47.674Z,9.08
2019-03-11T17:10:19.837Z,8.28
2019-03-11T17:12:48.085Z,6.70
2019-03-11T17:15:16.359Z,7.15
2019-03-11T17:17:45.499Z,6.30
2019-03-11T17:20:19.725Z,9.33
2019-03-11T17:22:47.977Z,7.53
2019-03-11T17:25:16.235Z,6.25
2019-03-11T17:27:44.722Z,7.40
2019-03-11T17:30:27.254Z,8.25
2019-03-11T17:32:55.478Z,5.25
2019-03-11T17:35:23.695Z,8.00
2019-03-11T17:37:51.997Z,6.00
2019-03-11T17:40:26.190Z,11.10
2019-03-11T17:42:54.472Z,8.73
2019-03-11T17:45:22.734Z,8.78
2019-03-11T17:47:51.058Z,10.43
2019-03-11T17:50:23.071Z,8.13
2019-03-11T17:52:51.539Z,12.20
2019-03-11T17:55:20.137Z,7.12
2019-03-11T17:57:48.468Z,14.93
2019-03-11T18:00:25.709Z,6.12
2019-03-11T18:02:54.645Z,5.60
2019-03-11T18:05:22.936Z,9.03
2019-03-11T18:07:51.179Z,7.83
2019-03-11T18:10:19.412Z,8.30
2019-03-11T18:12:47.626Z,9.95
2019-03-11T18:15:15.894Z,6.17
2019-03-11T18:17:47.585Z,10.58
2019-03-11T18:20:17.262Z,11.30
2019-03-11T18:22:45.486Z,12.20
2019-03-11T18:25:15.241Z,9.38
2019-03-11T18:27:43.550Z,6.67
2019-03-11T18:30:21.869Z,8.33
2019-03-11T18:32:50.116Z,8.05
2019-03-11T18:35:18.422Z,8.70
2019-03-11T18:37:46.652Z,10.65
2019-03-11T18:40:16.431Z,9.35
2019-03-11T18:42:44.792Z,13.30
2019-03-11T18:45:16.790Z,5.25
2019-03-11T18:47:45.135Z,5.70
2019-03-11T18:50:16.385Z,5.70
2019-03-11T18:52:44.694Z,8.88
2019-03-11T18:55:13.125Z,6.90
2019-03-11T18:57:41.343Z,8.53
2019-03-11T19:00:21.675Z,7.97
2019-03-11T19:02:49.932Z,12.43
2019-03-11T19:05:22.326Z,8.18
2019-03-11T19:07:50.585Z,7.70
2019-03-11T19:10:18.858Z,9.48
2019-03-11T19:12:47.157Z,9.25
2019-03-11T19:15:18.822Z,11.28
2019-03-11T19:17:47.116Z,9.28
2019-03-11T19:20:20.470Z,7.97
2019-03-11T19:22:48.761Z,12.55
2019-03-11T19:25:17.276Z,13.60
2019-03-11T19:27:45.579Z,10.23
2019-03-11T19:30:16.475Z,7.30
2019-03-11T19:32:44.745Z,13.67
2019-03-11T19:35:12.990Z,6.58
2019-03-11T19:37:41.522Z,7.80
2019-03-11T19:40:17.021Z,10.50
2019-03-11T19:42:45.249Z,10.32
2019-03-11T19:45:14.848Z,12.58
2019-03-11T19:47:43.128Z,13.80
2019-03-11T19:50:15.740Z,11.68
2019-03-11T19:52:44.029Z,16.10
2019-03-11T19:55:12.320Z,7.25
2019-03-11T19:57:40.566Z,12.53
2019-03-11T20:00:15.154Z,9.23
2019-03-11T20:02:43.552Z,13.08
2019-03-11T20:05:14.014Z,9.60
2019-03-11T20:07:42.382Z,7.10
2019-03-11T20:10:11.910Z,15.30
2019-03-11T20:12:40.186Z,7.67
2019-03-11T20:15:10.798Z,11.90
2019-03-11T20:17:39.369Z,9.13
2019-03-11T20:20:10.483Z,9.33
2019-03-11T20:22:38.693Z,12.73
2019-03-11T20:25:16.163Z,11.20
2019-03-11T20:27:44.499Z,9.18
2019-03-11T20:30:18.097Z,5.65
2019-03-11T20:32:46.401Z,13.78
2019-03-11T20:35:17.275Z,9.30
2019-03-11T20:37:44.734Z,13.65
2019-03-11T20:40:13.205Z,7.87
2019-03-11T20:42:41.529Z,11.12
2019-03-11T20:45:12.207Z,10.95
2019-03-11T20:47:40.455Z,11.33
2019-03-11T20:50:10.761Z,10.03
2019-03-11T20:52:39.046Z,9.23
2019-03-11T20:55:10.027Z,13.58
2019-03-11T20:57:38.597Z,8.10
2019-03-11T21:00:21.837Z,8.10
2019-03-11T21:02:50.205Z,11.53
2019-03-11T21:05:39.375Z,13.43
2019-03-11T21:08:07.686Z,12.70
2019-03-11T21:10:35.991Z,11.03
2019-03-11T21:13:04.256Z,15.18
2019-03-11T21:15:32.653Z,20.70
2019-03-11T21:18:00.969Z,10.50
2019-03-11T21:20:29.222Z,11.38
2019-03-11T21:22:57.537Z,9.15
2019-03-11T21:25:25.820Z,14.65
2019-03-11T21:27:54.091Z,11.57
2019-03-11T21:30:24.587Z,10.72
2019-03-11T21:32:52.948Z,11.83
2019-03-11T21:35:21.246Z,10.98
2019-03-11T21:37:49.550Z,17.15
2019-03-11T21:40:19.977Z,12.23
2019-03-11T21:42:48.541Z,10.03
2019-03-11T21:45:17.305Z,11.95
2019-03-11T21:47:45.594Z,13.38
2019-03-11T21:50:23.992Z,14.75
2019-03-11T21:52:52.279Z,16.48
2019-03-11T21:55:20.555Z,12.13
2019-03-11T21:57:48.896Z,13.32
2019-03-11T22:00:33.563Z,10.35
2019-03-11T22:02:54.479Z,16.97
2019-03-11T22:05:22.705Z,14.80
2019-03-11T22:07:50.991Z,15.45
2019-03-11T22:10:19.584Z,17.52
2019-03-11T22:12:47.934Z,21.05
2019-03-11T22:15:24.089Z,14.95
2019-03-11T22:17:52.391Z,12.60
2019-03-11T22:20:20.622Z,15.43
2019-03-11T22:22:48.870Z,12.40
2019-03-11T22:25:19.111Z,16.87
2019-03-11T22:27:47.354Z,16.55
2019-03-11T22:30:18.074Z,14.80
2019-03-11T22:32:46.302Z,15.90
2019-03-11T22:35:14.594Z,12.47
2019-03-11T22:37:42.885Z,22.48
2019-03-11T22:40:15.000Z,16.50
2019-03-11T22:42:43.227Z,13.55
2019-03-11T22:45:18.335Z,9.75
2019-03-11T22:47:46.562Z,13.58
2019-03-11T22:50:17.658Z,11.00
2019-03-11T22:52:44.738Z,16.52
2019-03-11T22:55:13.034Z,13.50
2019-03-11T22:57:41.328Z,13.45
2019-03-11T23:00:32.727Z,10.58
2019-03-11T23:03:00.937Z,14.33
2019-03-11T23:05:29.410Z,15.83
2019-03-11T23:07:57.643Z,15.83
2019-03-11T23:10:25.862Z,13.78
2019-03-11T23:12:54.089Z,17.77
2019-03-11T23:15:22.337Z,18.85
2019-03-11T23:17:50.553Z,20.23
2019-03-11T23:20:18.800Z,17.00
2019-03-11T23:22:47.046Z,16.35
2019-03-11T23:25:15.294Z,16.93
2019-03-11T23:27:43.514Z,14.68
2019-03-11T23:30:15.559Z,17.60
2019-03-11T23:32:43.799Z,16.40
2019-03-11T23:35:12.028Z,17.35
2019-03-11T23:37:40.250Z,15.75
2019-03-11T23:40:09.413Z,18.87
2019-03-11T23:42:37.633Z,19.30
2019-03-11T23:45:11.864Z,17.65
2019-03-11T23:47:40.101Z,16.62
2019-03-11T23:50:10.873Z,19.77
2019-03-11T23:52:39.153Z,16.83
2019-03-11T23:55:08.887Z,18.15
2019-03-11T23:57:37.155Z,18.25
